sensor_id;sensor_type;location;lat;lon;timestamp;P1;durP1;ratioP1;P2;durP2;ratioP2
41255;SDS011;26989;45.524;10.938;2022-08-19T00:01:43;3.63;;;0.63;;
41255;SDS011;26989;45.524;10.938;2022-08-19T00:04:19;3.75;;;0.98;;
41255;SDS011;26989;45.524;10.938;2022-08-19T00:06:48;5.55;;;0.75;;
41255;SDS011;26989;45.524;10.938;2022-08-19T00:09:16;5.03;;;1.20;;
41255;SDS011;26989;45.524;10.938;2022-08-19T00:11:45;3.75;;;1.10;;
41255;SDS011;26989;45.524;10.938;2022-08-19T00:14:13;4.75;;;1.23;;
41255;SDS011;26989;45.524;10.938;2022-08-19T00:16:42;4.05;;;1.15;;
41255;SDS011;26989;45.524;10.938;2022-08-19T00:19:11;2.03;;;0.90;;
41255;SDS011;26989;45.524;10.938;2022-08-19T00:21:38;3.80;;;1.00;;
41255;SDS011;26989;45.524;10.938;2022-08-19T00:24:06;4.07;;;1.20;;
41255;SDS011;26989;45.524;10.938;2022-08-19T00:26:35;1.75;;;1.02;;
41255;SDS011;26989;45.524;10.938;2022-08-19T00:29:03;7.25;;;1.40;;
41255;SDS011;26989;45.524;10.938;2022-08-19T00:31:31;9.23;;;1.50;;
41255;SDS011;26989;45.524;10.938;2022-08-19T00:33:58;4.20;;;1.35;;
41255;SDS011;26989;45.524;10.938;2022-08-19T00:36:25;7.75;;;1.23;;
41255;SDS011;26989;45.524;10.938;2022-08-19T00:38:52;1.80;;;0.98;;
41255;SDS011;26989;45.524;10.938;2022-08-19T00:41:20;2.58;;;1.20;;
41255;SDS011;26989;45.524;10.938;2022-08-19T00:43:57;5.05;;;0.85;;
41255;SDS011;26989;45.524;10.938;2022-08-19T00:46:25;3.38;;;1.08;;
41255;SDS011;26989;45.524;10.938;2022-08-19T00:48:53;4.28;;;1.20;;
41255;SDS011;26989;45.524;10.938;2022-08-19T00:51:21;4.40;;;1.25;;
41255;SDS011;26989;45.524;10.938;2022-08-19T00:53:49;4.55;;;2.03;;
41255;SDS011;26989;45.524;10.938;2022-08-19T00:56:16;4.00;;;1.58;;
41255;SDS011;26989;45.524;10.938;2022-08-19T00:58:44;6.40;;;1.75;;
41255;SDS011;26989;45.524;10.938;2022-08-19T01:01:11;6.05;;;1.92;;
41255;SDS011;26989;45.524;10.938;2022-08-19T01:03:40;9.63;;;2.03;;
41255;SDS011;26989;45.524;10.938;2022-08-19T01:06:23;5.95;;;2.10;;
41255;SDS011;26989;45.524;10.938;2022-08-19T01:08:51;4.85;;;2.03;;
41255;SDS011;26989;45.524;10.938;2022-08-19T01:11:19;6.47;;;1.92;;
41255;SDS011;26989;45.524;10.938;2022-08-19T01:13:46;5.03;;;1.98;;
41255;SDS011;26989;45.524;10.938;2022-08-19T01:16:15;7.57;;;2.58;;
41255;SDS011;26989;45.524;10.938;2022-08-19T01:18:45;6.72;;;2.90;;
41255;SDS011;26989;45.524;10.938;2022-08-19T01:21:14;5.40;;;3.33;;
41255;SDS011;26989;45.524;10.938;2022-08-19T01:23:51;11.02;;;3.47;;
41255;SDS011;26989;45.524;10.938;2022-08-19T01:26:20;9.63;;;3.97;;
41255;SDS011;26989;45.524;10.938;2022-08-19T01:28:50;7.57;;;3.58;;
41255;SDS011;26989;45.524;10.938;2022-08-19T01:31:26;8.25;;;3.50;;
41255;SDS011;26989;45.524;10.938;2022-08-19T01:33:58;5.53;;;2.83;;
41255;SDS011;26989;45.524;10.938;2022-08-19T01:36:30;8.65;;;3.63;;
41255;SDS011;26989;45.524;10.938;2022-08-19T01:38:58;7.45;;;3.60;;
41255;SDS011;26989;45.524;10.938;2022-08-19T01:41:26;7.93;;;3.55;;
41255;SDS011;26989;45.524;10.938;2022-08-19T01:43:53;9.02;;;4.03;;
41255;SDS011;26989;45.524;10.938;2022-08-19T01:46:40;9.68;;;4.35;;
41255;SDS011;26989;45.524;10.938;2022-08-19T01:49:08;6.00;;;3.42;;
41255;SDS011;26989;45.524;10.938;2022-08-19T01:51:36;9.32;;;4.35;;
41255;SDS011;26989;45.524;10.938;2022-08-19T01:54:06;11.20;;;4.70;;
41255;SDS011;26989;45.524;10.938;2022-08-19T01:56:34;8.60;;;4.93;;
41255;SDS011;26989;45.524;10.938;2022-08-19T01:59:03;9.80;;;4.40;;
41255;SDS011;26989;45.524;10.938;2022-08-19T02:01:35;7.78;;;4.13;;
41255;SDS011;26989;45.524;10.938;2022-08-19T02:04:02;8.50;;;4.50;;
41255;SDS011;26989;45.524;10.938;2022-08-19T02:06:29;7.03;;;4.60;;
41255;SDS011;26989;45.524;10.938;2022-08-19T02:08:56;7.97;;;4.00;;
41255;SDS011;26989;45.524;10.938;2022-08-19T02:11:25;10.80;;;4.43;;
41255;SDS011;26989;45.524;10.938;2022-08-19T02:13:55;9.57;;;4.90;;
41255;SDS011;26989;45.524;10.938;2022-08-19T02:16:21;10.88;;;4.63;;
41255;SDS011;26989;45.524;10.938;2022-08-19T02:18:49;8.85;;;5.28;;
41255;SDS011;26989;45.524;10.938;2022-08-19T02:21:17;10.75;;;4.53;;
41255;SDS011;26989;45.524;10.938;2022-08-19T02:23:47;10.45;;;5.35;;
41255;SDS011;26989;45.524;10.938;2022-08-19T02:26:14;8.63;;;4.80;;
41255;SDS011;26989;45.524;10.938;2022-08-19T02:28:42;6.93;;;5.57;;
41255;SDS011;26989;45.524;10.938;2022-08-19T02:31:13;8.52;;;5.07;;
41255;SDS011;26989;45.524;10.938;2022-08-19T02:33:42;9.82;;;5.53;;
41255;SDS011;26989;45.524;10.938;2022-08-19T02:36:09;8.65;;;3.97;;
41255;SDS011;26989;45.524;10.938;2022-08-19T02:38:38;6.03;;;3.20;;
41255;SDS011;26989;45.524;10.938;2022-08-19T02:41:07;9.05;;;3.10;;
41255;SDS011;26989;45.524;10.938;2022-08-19T02:43:38;12.82;;;3.88;;
41255;SDS011;26989;45.524;10.938;2022-08-19T02:46:27;9.65;;;3.30;;
41255;SDS011;26989;45.524;10.938;2022-08-19T02:48:57;8.50;;;3.13;;
41255;SDS011;26989;45.524;10.938;2022-08-19T02:51:29;9.75;;;4.50;;
41255;SDS011;26989;45.524;10.938;2022-08-19T02:54:05;10.93;;;3.55;;
41255;SDS011;26989;45.524;10.938;2022-08-19T02:56:36;6.63;;;3.25;;
41255;SDS011;26989;45.524;10.938;2022-08-19T02:59:04;12.73;;;3.80;;
41255;SDS011;26989;45.524;10.938;2022-08-19T03:01:38;7.88;;;3.30;;
41255;SDS011;26989;45.524;10.938;2022-08-19T03:04:07;9.48;;;3.80;;
41255;SDS011;26989;45.524;10.938;2022-08-19T03:06:36;8.98;;;4.10;;
41255;SDS011;26989;45.524;10.938;2022-08-19T03:09:05;10.15;;;4.00;;
41255;SDS011;26989;45.524;10.938;2022-08-19T03:11:32;10.18;;;3.80;;
41255;SDS011;26989;45.524;10.938;2022-08-19T03:14:00;10.55;;;4.57;;
41255;SDS011;26989;45.524;10.938;2022-08-19T03:16:29;9.88;;;3.95;;
41255;SDS011;26989;45.524;10.938;2022-08-19T03:18:59;10.07;;;3.63;;
41255;SDS011;26989;45.524;10.938;2022-08-19T03:21:28;11.02;;;4.30;;
41255;SDS011;26989;45.524;10.938;2022-08-19T03:23:57;8.00;;;3.65;;
41255;SDS011;26989;45.524;10.938;2022-08-19T03:26:25;6.30;;;3.85;;
41255;SDS011;26989;45.524;10.938;2022-08-19T03:28:52;6.63;;;3.90;;
41255;SDS011;26989;45.524;10.938;2022-08-19T03:31:24;7.47;;;3.92;;
41255;SDS011;26989;45.524;10.938;2022-08-19T03:34:14;7.05;;;3.78;;
41255;SDS011;26989;45.524;10.938;2022-08-19T03:36:46;9.43;;;3.60;;
41255;SDS011;26989;45.524;10.938;2022-08-19T03:39:14;10.70;;;4.47;;
41255;SDS011;26989;45.524;10.938;2022-08-19T03:41:42;10.18;;;4.05;;
41255;SDS011;26989;45.524;10.938;2022-08-19T03:44:15;7.38;;;4.38;;
41255;SDS011;26989;45.524;10.938;2022-08-19T03:46:45;7.90;;;3.88;;
41255;SDS011;26989;45.524;10.938;2022-08-19T03:49:13;10.38;;;3.97;;
41255;SDS011;26989;45.524;10.938;2022-08-19T03:51:43;9.65;;;4.22;;
41255;SDS011;26989;45.524;10.938;2022-08-19T03:54:12;7.40;;;3.60;;
41255;SDS011;26989;45.524;10.938;2022-08-19T03:56:41;6.90;;;3.97;;
41255;SDS011;26989;45.524;10.938;2022-08-19T03:59:10;5.47;;;3.33;;
41255;SDS011;26989;45.524;10.938;2022-08-19T04:01:39;10.35;;;4.30;;
41255;SDS011;26989;45.524;10.938;2022-08-19T04:04:07;6.07;;;3.38;;
41255;SDS011;26989;45.524;10.938;2022-08-19T04:06:35;9.10;;;4.15;;
41255;SDS011;26989;45.524;10.938;2022-08-19T04:09:06;7.32;;;3.70;;
41255;SDS011;26989;45.524;10.938;2022-08-19T04:11:36;6.40;;;2.78;;
41255;SDS011;26989;45.524;10.938;2022-08-19T04:14:14;9.80;;;2.95;;
41255;SDS011;26989;45.524;10.938;2022-08-19T04:16:43;8.15;;;2.70;;
41255;SDS011;26989;45.524;10.938;2022-08-19T04:19:10;7.75;;;3.30;;
41255;SDS011;26989;45.524;10.938;2022-08-19T04:21:37;9.05;;;2.90;;
41255;SDS011;26989;45.524;10.938;2022-08-19T04:24:04;10.25;;;3.28;;
41255;SDS011;26989;45.524;10.938;2022-08-19T04:26:34;6.35;;;2.75;;
41255;SDS011;26989;45.524;10.938;2022-08-19T04:29:04;10.02;;;3.60;;
41255;SDS011;26989;45.524;10.938;2022-08-19T04:31:38;12.13;;;4.45;;
41255;SDS011;26989;45.524;10.938;2022-08-19T04:34:06;8.80;;;4.40;;
41255;SDS011;26989;45.524;10.938;2022-08-19T04:36:37;12.65;;;3.88;;
41255;SDS011;26989;45.524;10.938;2022-08-19T04:39:08;10.05;;;3.60;;
41255;SDS011;26989;45.524;10.938;2022-08-19T04:41:41;9.63;;;3.70;;
41255;SDS011;26989;45.524;10.938;2022-08-19T04:44:26;8.95;;;4.72;;
41255;SDS011;26989;45.524;10.938;2022-08-19T04:46:58;11.90;;;5.10;;
41255;SDS011;26989;45.524;10.938;2022-08-19T04:49:26;8.70;;;5.53;;
41255;SDS011;26989;45.524;10.938;2022-08-19T04:51:54;10.88;;;5.90;;
41255;SDS011;26989;45.524;10.938;2022-08-19T04:54:22;12.15;;;6.13;;
41255;SDS011;26989;45.524;10.938;2022-08-19T04:57:04;9.70;;;4.30;;
41255;SDS011;26989;45.524;10.938;2022-08-19T04:59:35;9.55;;;4.45;;
41255;SDS011;26989;45.524;10.938;2022-08-19T05:02:06;9.07;;;4.17;;
41255;SDS011;26989;45.524;10.938;2022-08-19T05:04:34;8.98;;;4.20;;
41255;SDS011;26989;45.524;10.938;2022-08-19T05:07:05;8.00;;;4.47;;
41255;SDS011;26989;45.524;10.938;2022-08-19T05:09:33;10.40;;;4.57;;
41255;SDS011;26989;45.524;10.938;2022-08-19T05:12:20;10.10;;;4.47;;
41255;SDS011;26989;45.524;10.938;2022-08-19T05:14:54;11.70;;;4.18;;
41255;SDS011;26989;45.524;10.938;2022-08-19T05:17:23;14.05;;;4.97;;
41255;SDS011;26989;45.524;10.938;2022-08-19T05:22:40;7.93;;;4.40;;
41255;SDS011;26989;45.524;10.938;2022-08-19T05:25:09;12.40;;;4.97;;
41255;SDS011;26989;45.524;10.938;2022-08-19T05:27:39;10.27;;;4.97;;
41255;SDS011;26989;45.524;10.938;2022-08-19T05:30:08;16.75;;;5.18;;
41255;SDS011;26989;45.524;10.938;2022-08-19T05:32:35;9.77;;;5.15;;
41255;SDS011;26989;45.524;10.938;2022-08-19T05:35:04;11.63;;;4.72;;
41255;SDS011;26989;45.524;10.938;2022-08-19T05:37:31;12.48;;;5.68;;
41255;SDS011;26989;45.524;10.938;2022-08-19T05:39:58;7.75;;;4.57;;
41255;SDS011;26989;45.524;10.938;2022-08-19T05:42:25;12.02;;;5.00;;
41255;SDS011;26989;45.524;10.938;2022-08-19T05:44:52;9.73;;;4.93;;
41255;SDS011;26989;45.524;10.938;2022-08-19T05:47:20;8.80;;;4.20;;
41255;SDS011;26989;45.524;10.938;2022-08-19T05:49:47;13.07;;;4.93;;
41255;SDS011;26989;45.524;10.938;2022-08-19T05:52:16;11.93;;;4.60;;
41255;SDS011;26989;45.524;10.938;2022-08-19T05:54:44;12.02;;;4.30;;
41255;SDS011;26989;45.524;10.938;2022-08-19T05:57:17;10.45;;;4.85;;
41255;SDS011;26989;45.524;10.938;2022-08-19T05:59:45;10.65;;;5.03;;
41255;SDS011;26989;45.524;10.938;2022-08-19T06:02:23;11.00;;;4.30;;
41255;SDS011;26989;45.524;10.938;2022-08-19T06:04:51;7.47;;;4.50;;
41255;SDS011;26989;45.524;10.938;2022-08-19T06:07:18;7.63;;;4.10;;
41255;SDS011;26989;45.524;10.938;2022-08-19T06:09:45;11.20;;;3.97;;
41255;SDS011;26989;45.524;10.938;2022-08-19T06:12:30;12.47;;;4.27;;
41255;SDS011;26989;45.524;10.938;2022-08-19T06:15:01;10.20;;;3.97;;
41255;SDS011;26989;45.524;10.938;2022-08-19T06:17:30;9.40;;;3.50;;
41255;SDS011;26989;45.524;10.938;2022-08-19T06:19:58;10.20;;;3.13;;
41255;SDS011;26989;45.524;10.938;2022-08-19T06:22:25;8.65;;;3.35;;
41255;SDS011;26989;45.524;10.938;2022-08-19T06:24:53;7.78;;;3.85;;
41255;SDS011;26989;45.524;10.938;2022-08-19T06:27:21;14.27;;;4.63;;
41255;SDS011;26989;45.524;10.938;2022-08-19T06:29:48;10.73;;;4.35;;
41255;SDS011;26989;45.524;10.938;2022-08-19T06:32:16;11.07;;;4.40;;
41255;SDS011;26989;45.524;10.938;2022-08-19T06:34:44;11.15;;;4.18;;
41255;SDS011;26989;45.524;10.938;2022-08-19T06:37:12;10.40;;;3.60;;
41255;SDS011;26989;45.524;10.938;2022-08-19T06:39:40;8.38;;;3.75;;
41255;SDS011;26989;45.524;10.938;2022-08-19T06:42:09;7.75;;;3.70;;
41255;SDS011;26989;45.524;10.938;2022-08-19T06:44:40;12.27;;;4.45;;
41255;SDS011;26989;45.524;10.938;2022-08-19T06:47:11;8.32;;;4.25;;
41255;SDS011;26989;45.524;10.938;2022-08-19T06:49:54;10.30;;;4.45;;
41255;SDS011;26989;45.524;10.938;2022-08-19T06:52:29;12.57;;;4.88;;
41255;SDS011;26989;45.524;10.938;2022-08-19T06:54:59;9.80;;;4.32;;
41255;SDS011;26989;45.524;10.938;2022-08-19T06:57:32;10.30;;;3.72;;
41255;SDS011;26989;45.524;10.938;2022-08-19T06:59:59;10.40;;;4.00;;
41255;SDS011;26989;45.524;10.938;2022-08-19T07:02:26;10.70;;;3.97;;
41255;SDS011;26989;45.524;10.938;2022-08-19T07:04:53;9.13;;;4.20;;
41255;SDS011;26989;45.524;10.938;2022-08-19T07:07:20;11.80;;;3.97;;
41255;SDS011;26989;45.524;10.938;2022-08-19T07:09:48;8.23;;;4.22;;
41255;SDS011;26989;45.524;10.938;2022-08-19T07:12:27;10.98;;;4.95;;
41255;SDS011;26989;45.524;10.938;2022-08-19T07:15:01;10.90;;;4.93;;
41255;SDS011;26989;45.524;10.938;2022-08-19T07:17:30;21.23;;;5.75;;
41255;SDS011;26989;45.524;10.938;2022-08-19T07:20:00;12.63;;;5.05;;
41255;SDS011;26989;45.524;10.938;2022-08-19T07:22:30;12.38;;;5.78;;
41255;SDS011;26989;45.524;10.938;2022-08-19T07:24:59;14.85;;;5.45;;
41255;SDS011;26989;45.524;10.938;2022-08-19T07:27:26;13.15;;;5.00;;
41255;SDS011;26989;45.524;10.938;2022-08-19T07:29:53;11.20;;;5.20;;
41255;SDS011;26989;45.524;10.938;2022-08-19T07:32:21;12.45;;;4.85;;
41255;SDS011;26989;45.524;10.938;2022-08-19T07:34:48;9.70;;;4.68;;
41255;SDS011;26989;45.524;10.938;2022-08-19T07:37:15;10.27;;;4.28;;
41255;SDS011;26989;45.524;10.938;2022-08-19T07:39:42;15.18;;;5.65;;
41255;SDS011;26989;45.524;10.938;2022-08-19T07:42:09;11.05;;;4.70;;
41255;SDS011;26989;45.524;10.938;2022-08-19T07:44:38;9.73;;;4.80;;
41255;SDS011;26989;45.524;10.938;2022-08-19T07:47:11;11.50;;;4.80;;
41255;SDS011;26989;45.524;10.938;2022-08-19T07:49:59;13.82;;;4.82;;
41255;SDS011;26989;45.524;10.938;2022-08-19T07:52:25;10.00;;;5.57;;
41255;SDS011;26989;45.524;10.938;2022-08-19T07:54:52;14.18;;;5.63;;
41255;SDS011;26989;45.524;10.938;2022-08-19T07:57:19;11.93;;;5.18;;
41255;SDS011;26989;45.524;10.938;2022-08-19T07:59:46;9.88;;;4.78;;
41255;SDS011;26989;45.524;10.938;2022-08-19T08:02:13;15.02;;;5.93;;
41255;SDS011;26989;45.524;10.938;2022-08-19T08:04:40;12.88;;;6.10;;
41255;SDS011;26989;45.524;10.938;2022-08-19T08:07:25;11.98;;;5.28;;
41255;SDS011;26989;45.524;10.938;2022-08-19T08:10:11;12.90;;;5.53;;
41255;SDS011;26989;45.524;10.938;2022-08-19T08:12:46;14.02;;;5.65;;
41255;SDS011;26989;45.524;10.938;2022-08-19T08:15:34;14.23;;;5.75;;
41255;SDS011;26989;45.524;10.938;2022-08-19T08:18:07;9.88;;;5.28;;
41255;SDS011;26989;45.524;10.938;2022-08-19T08:20:34;8.60;;;5.40;;
41255;SDS011;26989;45.524;10.938;2022-08-19T08:23:01;15.00;;;6.30;;
41255;SDS011;26989;45.524;10.938;2022-08-19T08:25:47;11.68;;;5.53;;
41255;SDS011;26989;45.524;10.938;2022-08-19T08:28:15;13.55;;;5.10;;
41255;SDS011;26989;45.524;10.938;2022-08-19T08:30:46;10.45;;;5.68;;
41255;SDS011;26989;45.524;10.938;2022-08-19T08:33:19;8.73;;;5.00;;
41255;SDS011;26989;45.524;10.938;2022-08-19T08:36:09;9.93;;;5.53;;
41255;SDS011;26989;45.524;10.938;2022-08-19T08:38:37;10.35;;;4.93;;
41255;SDS011;26989;45.524;10.938;2022-08-19T08:43:59;12.20;;;5.68;;
41255;SDS011;26989;45.524;10.938;2022-08-19T08:51:46;12.50;;;5.50;;
41255;SDS011;26989;45.524;10.938;2022-08-19T08:54:26;9.23;;;4.85;;
41255;SDS011;26989;45.524;10.938;2022-08-19T08:57:00;10.60;;;4.75;;
41255;SDS011;26989;45.524;10.938;2022-08-19T08:59:34;9.13;;;4.88;;
41255;SDS011;26989;45.524;10.938;2022-08-19T09:02:04;9.38;;;4.95;;
41255;SDS011;26989;45.524;10.938;2022-08-19T09:04:31;11.25;;;5.20;;
41255;SDS011;26989;45.524;10.938;2022-08-19T09:10:42;13.00;;;6.55;;
41255;SDS011;26989;45.524;10.938;2022-08-19T09:13:20;8.35;;;4.05;;
41255;SDS011;26989;45.524;10.938;2022-08-19T09:15:55;8.70;;;4.72;;
41255;SDS011;26989;45.524;10.938;2022-08-19T09:19:02;6.97;;;4.03;;
41255;SDS011;26989;45.524;10.938;2022-08-19T09:21:24;6.97;;;3.80;;
41255;SDS011;26989;45.524;10.938;2022-08-19T09:23:58;6.93;;;4.07;;
41255;SDS011;26989;45.524;10.938;2022-08-19T09:26:28;7.78;;;3.88;;
41255;SDS011;26989;45.524;10.938;2022-08-19T09:29:16;7.82;;;4.68;;
41255;SDS011;26989;45.524;10.938;2022-08-19T09:31:43;8.15;;;4.38;;
41255;SDS011;26989;45.524;10.938;2022-08-19T09:34:10;7.47;;;4.05;;
41255;SDS011;26989;45.524;10.938;2022-08-19T09:36:47;8.55;;;4.32;;
41255;SDS011;26989;45.524;10.938;2022-08-19T09:39:16;8.07;;;3.60;;
41255;SDS011;26989;45.524;10.938;2022-08-19T09:41:43;5.82;;;3.30;;
41255;SDS011;26989;45.524;10.938;2022-08-19T09:44:14;8.95;;;4.07;;
41255;SDS011;26989;45.524;10.938;2022-08-19T09:46:43;8.73;;;3.70;;
41255;SDS011;26989;45.524;10.938;2022-08-19T09:49:10;7.25;;;3.90;;
41255;SDS011;26989;45.524;10.938;2022-08-19T09:51:38;5.57;;;3.45;;
41255;SDS011;26989;45.524;10.938;2022-08-19T09:54:06;23.98;;;5.25;;
41255;SDS011;26989;45.524;10.938;2022-08-19T09:56:36;7.40;;;3.40;;
41255;SDS011;26989;45.524;10.938;2022-08-19T09:59:03;5.38;;;2.88;;
41255;SDS011;26989;45.524;10.938;2022-08-19T10:01:30;7.30;;;3.20;;
41255;SDS011;26989;45.524;10.938;2022-08-19T10:03:59;5.90;;;3.03;;
41255;SDS011;26989;45.524;10.938;2022-08-19T10:06:34;4.53;;;2.60;;
41255;SDS011;26989;45.524;10.938;2022-08-19T10:09:12;5.60;;;3.05;;
41255;SDS011;26989;45.524;10.938;2022-08-19T10:11:40;5.88;;;3.17;;
41255;SDS011;26989;45.524;10.938;2022-08-19T10:14:17;4.55;;;2.90;;
41255;SDS011;26989;45.524;10.938;2022-08-19T10:16:48;4.40;;;2.83;;
41255;SDS011;26989;45.524;10.938;2022-08-19T10:19:16;7.90;;;3.05;;
41255;SDS011;26989;45.524;10.938;2022-08-19T10:21:51;4.35;;;2.10;;
41255;SDS011;26989;45.524;10.938;2022-08-19T10:24:20;4.65;;;1.90;;
41255;SDS011;26989;45.524;10.938;2022-08-19T10:26:50;7.60;;;2.63;;
41255;SDS011;26989;45.524;10.938;2022-08-19T10:29:22;4.90;;;2.90;;
41255;SDS011;26989;45.524;10.938;2022-08-19T10:31:58;4.18;;;2.78;;
41255;SDS011;26989;45.524;10.938;2022-08-19T10:34:28;8.73;;;4.43;;
41255;SDS011;26989;45.524;10.938;2022-08-19T10:36:56;39.67;;;22.45;;
41255;SDS011;26989;45.524;10.938;2022-08-19T10:39:27;8.35;;;5.25;;
41255;SDS011;26989;45.524;10.938;2022-08-19T10:41:57;4.93;;;2.83;;
41255;SDS011;26989;45.524;10.938;2022-08-19T10:44:24;7.35;;;3.45;;
41255;SDS011;26989;45.524;10.938;2022-08-19T10:46:58;4.05;;;2.95;;
41255;SDS011;26989;45.524;10.938;2022-08-19T10:49:25;7.53;;;3.20;;
41255;SDS011;26989;45.524;10.938;2022-08-19T10:51:53;5.70;;;2.67;;
41255;SDS011;26989;45.524;10.938;2022-08-19T10:54:45;5.20;;;3.15;;
41255;SDS011;26989;45.524;10.938;2022-08-19T10:57:34;4.38;;;2.40;;
41255;SDS011;26989;45.524;10.938;2022-08-19T11:00:21;5.53;;;2.38;;
41255;SDS011;26989;45.524;10.938;2022-08-19T11:02:49;8.75;;;2.42;;
41255;SDS011;26989;45.524;10.938;2022-08-19T11:05:17;6.45;;;3.72;;
41255;SDS011;26989;45.524;10.938;2022-08-19T11:07:44;6.97;;;3.42;;
41255;SDS011;26989;45.524;10.938;2022-08-19T11:10:12;5.57;;;2.72;;
41255;SDS011;26989;45.524;10.938;2022-08-19T11:12:46;6.07;;;3.30;;
41255;SDS011;26989;45.524;10.938;2022-08-19T11:15:14;7.97;;;3.15;;
41255;SDS011;26989;45.524;10.938;2022-08-19T11:17:41;7.68;;;3.05;;
41255;SDS011;26989;45.524;10.938;2022-08-19T11:20:10;5.68;;;3.33;;
41255;SDS011;26989;45.524;10.938;2022-08-19T11:22:38;5.93;;;2.95;;
41255;SDS011;26989;45.524;10.938;2022-08-19T11:25:08;6.93;;;3.17;;
41255;SDS011;26989;45.524;10.938;2022-08-19T11:27:37;10.25;;;3.20;;
41255;SDS011;26989;45.524;10.938;2022-08-19T11:30:06;10.73;;;3.40;;
41255;SDS011;26989;45.524;10.938;2022-08-19T11:32:38;8.90;;;3.22;;
41255;SDS011;26989;45.524;10.938;2022-08-19T11:35:12;6.35;;;3.47;;
41255;SDS011;26989;45.524;10.938;2022-08-19T11:37:39;7.10;;;3.30;;
41255;SDS011;26989;45.524;10.938;2022-08-19T11:40:06;9.27;;;3.42;;
41255;SDS011;26989;45.524;10.938;2022-08-19T11:42:34;8.68;;;3.95;;
41255;SDS011;26989;45.524;10.938;2022-08-19T11:45:20;5.63;;;3.70;;
41255;SDS011;26989;45.524;10.938;2022-08-19T11:47:47;8.80;;;4.55;;
41255;SDS011;26989;45.524;10.938;2022-08-19T11:50:15;7.63;;;5.68;;
41255;SDS011;26989;45.524;10.938;2022-08-19T11:52:42;7.53;;;5.47;;
41255;SDS011;26989;45.524;10.938;2022-08-19T11:55:10;10.43;;;5.55;;
41255;SDS011;26989;45.524;10.938;2022-08-19T11:57:39;11.10;;;6.75;;
41255;SDS011;26989;45.524;10.938;2022-08-19T12:00:07;11.05;;;7.47;;
41255;SDS011;26989;45.524;10.938;2022-08-19T12:02:36;9.07;;;7.32;;
41255;SDS011;26989;45.524;10.938;2022-08-19T12:05:03;19.70;;;9.43;;
41255;SDS011;26989;45.524;10.938;2022-08-19T12:07:37;9.52;;;7.82;;
41255;SDS011;26989;45.524;10.938;2022-08-19T12:10:04;11.50;;;8.25;;
41255;SDS011;26989;45.524;10.938;2022-08-19T12:12:33;19.25;;;8.85;;
41255;SDS011;26989;45.524;10.938;2022-08-19T12:15:00;11.25;;;6.30;;
41255;SDS011;26989;45.524;10.938;2022-08-19T12:17:28;11.82;;;5.97;;
41255;SDS011;26989;45.524;10.938;2022-08-19T12:19:56;9.60;;;6.03;;
41255;SDS011;26989;45.524;10.938;2022-08-19T12:22:23;7.90;;;5.13;;
41255;SDS011;26989;45.524;10.938;2022-08-19T12:24:50;10.57;;;4.07;;
41255;SDS011;26989;45.524;10.938;2022-08-19T12:27:19;7.97;;;3.75;;
41255;SDS011;26989;45.524;10.938;2022-08-19T12:30:06;5.55;;;2.83;;
41255;SDS011;26989;45.524;10.938;2022-08-19T12:32:34;5.95;;;2.78;;
41255;SDS011;26989;45.524;10.938;2022-08-19T12:35:02;6.88;;;3.13;;
41255;SDS011;26989;45.524;10.938;2022-08-19T12:37:30;5.30;;;3.30;;
41255;SDS011;26989;45.524;10.938;2022-08-19T12:39:58;6.10;;;3.05;;
41255;SDS011;26989;45.524;10.938;2022-08-19T12:42:26;4.32;;;3.17;;
41255;SDS011;26989;45.524;10.938;2022-08-19T12:44:53;5.65;;;3.50;;
41255;SDS011;26989;45.524;10.938;2022-08-19T12:47:21;5.50;;;3.60;;
41255;SDS011;26989;45.524;10.938;2022-08-19T12:49:48;7.88;;;3.45;;
41255;SDS011;26989;45.524;10.938;2022-08-19T12:52:21;7.05;;;3.00;;
41255;SDS011;26989;45.524;10.938;2022-08-19T12:54:54;4.18;;;3.25;;
41255;SDS011;26989;45.524;10.938;2022-08-19T12:57:23;9.50;;;2.97;;
41255;SDS011;26989;45.524;10.938;2022-08-19T12:59:57;6.00;;;2.50;;
41255;SDS011;26989;45.524;10.938;2022-08-19T13:02:25;5.45;;;2.28;;
41255;SDS011;26989;45.524;10.938;2022-08-19T13:04:52;3.67;;;2.00;;
41255;SDS011;26989;45.524;10.938;2022-08-19T13:07:19;3.15;;;1.90;;
41255;SDS011;26989;45.524;10.938;2022-08-19T13:09:47;5.78;;;1.60;;
41255;SDS011;26989;45.524;10.938;2022-08-19T13:12:17;4.15;;;1.50;;
41255;SDS011;26989;45.524;10.938;2022-08-19T13:14:50;3.03;;;1.40;;
41255;SDS011;26989;45.524;10.938;2022-08-19T13:17:18;3.60;;;1.50;;
41255;SDS011;26989;45.524;10.938;2022-08-19T13:19:45;3.92;;;1.70;;
41255;SDS011;26989;45.524;10.938;2022-08-19T13:22:12;4.38;;;1.75;;
41255;SDS011;26989;45.524;10.938;2022-08-19T13:24:40;5.65;;;2.08;;
41255;SDS011;26989;45.524;10.938;2022-08-19T13:27:12;3.75;;;1.80;;
41255;SDS011;26989;45.524;10.938;2022-08-19T13:29:40;5.47;;;2.00;;
41255;SDS011;26989;45.524;10.938;2022-08-19T13:32:26;5.25;;;1.95;;
41255;SDS011;26989;45.524;10.938;2022-08-19T13:35:14;3.58;;;1.80;;
41255;SDS011;26989;45.524;10.938;2022-08-19T13:37:42;4.03;;;1.70;;
41255;SDS011;26989;45.524;10.938;2022-08-19T13:42:43;7.85;;;1.95;;
41255;SDS011;26989;45.524;10.938;2022-08-19T13:45:12;3.65;;;1.45;;
41255;SDS011;26989;45.524;10.938;2022-08-19T13:47:41;3.72;;;1.90;;
41255;SDS011;26989;45.524;10.938;2022-08-19T13:50:11;3.38;;;1.50;;
41255;SDS011;26989;45.524;10.938;2022-08-19T13:52:40;3.00;;;1.73;;
41255;SDS011;26989;45.524;10.938;2022-08-19T13:55:07;2.33;;;1.50;;
41255;SDS011;26989;45.524;10.938;2022-08-19T13:57:35;5.70;;;2.05;;
41255;SDS011;26989;45.524;10.938;2022-08-19T14:00:06;2.58;;;1.55;;
41255;SDS011;26989;45.524;10.938;2022-08-19T14:02:37;3.70;;;1.73;;
41255;SDS011;26989;45.524;10.938;2022-08-19T14:05:06;3.25;;;1.50;;
41255;SDS011;26989;45.524;10.938;2022-08-19T14:07:35;5.03;;;2.38;;
41255;SDS011;26989;45.524;10.938;2022-08-19T14:10:04;3.70;;;1.30;;
41255;SDS011;26989;45.524;10.938;2022-08-19T14:12:33;3.13;;;1.00;;
41255;SDS011;26989;45.524;10.938;2022-08-19T14:15:00;2.50;;;1.20;;
41255;SDS011;26989;45.524;10.938;2022-08-19T14:17:29;3.20;;;1.60;;
41255;SDS011;26989;45.524;10.938;2022-08-19T14:19:56;4.18;;;1.40;;
41255;SDS011;26989;45.524;10.938;2022-08-19T14:22:36;4.43;;;1.58;;
41255;SDS011;26989;45.524;10.938;2022-08-19T14:25:05;3.13;;;1.48;;
41255;SDS011;26989;45.524;10.938;2022-08-19T14:27:34;2.47;;;1.00;;
41255;SDS011;26989;45.524;10.938;2022-08-19T14:30:03;2.55;;;1.52;;
41255;SDS011;26989;45.524;10.938;2022-08-19T14:32:33;3.53;;;1.50;;
41255;SDS011;26989;45.524;10.938;2022-08-19T14:35:01;2.78;;;1.10;;
41255;SDS011;26989;45.524;10.938;2022-08-19T14:37:28;2.65;;;1.30;;
41255;SDS011;26989;45.524;10.938;2022-08-19T14:39:55;3.83;;;1.15;;
41255;SDS011;26989;45.524;10.938;2022-08-19T14:42:22;4.82;;;1.42;;
41255;SDS011;26989;45.524;10.938;2022-08-19T14:44:49;3.33;;;1.30;;
41255;SDS011;26989;45.524;10.938;2022-08-19T14:47:16;4.15;;;1.40;;
41255;SDS011;26989;45.524;10.938;2022-08-19T14:49:44;2.75;;;1.65;;
41255;SDS011;26989;45.524;10.938;2022-08-19T14:52:15;4.13;;;1.60;;
41255;SDS011;26989;45.524;10.938;2022-08-19T14:54:42;4.10;;;1.73;;
41255;SDS011;26989;45.524;10.938;2022-08-19T14:57:11;5.03;;;1.58;;
41255;SDS011;26989;45.524;10.938;2022-08-19T14:59:38;5.50;;;1.60;;
41255;SDS011;26989;45.524;10.938;2022-08-19T15:02:05;4.07;;;1.85;;
41255;SDS011;26989;45.524;10.938;2022-08-19T15:04:52;3.50;;;1.58;;
41255;SDS011;26989;45.524;10.938;2022-08-19T15:07:24;4.72;;;1.65;;